createdAt,value
2019-05-06T00:01:24.730Z,99.90
2019-05-06T00:03:54.303Z,1.00
2019-05-06T00:06:23.812Z,99.90
2019-05-06T00:08:55.867Z,1.00
2019-05-06T00:11:25.181Z,1.00
2019-05-06T00:13:54.904Z,1.00
2019-05-06T00:16:24.278Z,1.00
2019-05-06T00:18:54.252Z,99.90
2019-05-06T00:21:24.376Z,1.00
2019-05-06T00:23:54.660Z,1.00
2019-05-06T00:26:56.737Z,1.00
2019-05-06T00:29:26.511Z,99.90
2019-05-06T00:31:55.849Z,1.00
2019-05-06T00:34:25.193Z,1.00
2019-05-06T00:36:54.755Z,1.00
2019-05-06T00:39:44.379Z,99.90
2019-05-06T00:42:34.609Z,97.40
2019-05-06T00:45:04.817Z,1.00
2019-05-06T00:47:34.374Z,1.00
2019-05-06T00:50:04.353Z,1.00
2019-05-06T00:52:34.042Z,1.00
2019-05-06T00:55:04.112Z,99.90
2019-05-06T00:57:45.837Z,99.90
2019-05-06T01:00:20.538Z,1.00
2019-05-06T01:02:49.943Z,99.90
2019-05-06T01:05:19.285Z,99.90
2019-05-06T01:07:48.682Z,99.90
2019-05-06T01:10:18.265Z,99.90
2019-05-06T01:12:57.206Z,99.90
2019-05-06T01:15:28.035Z,99.90
2019-05-06T01:17:57.341Z,99.90
2019-05-06T01:20:26.716Z,99.90
2019-05-06T01:22:56.106Z,99.90
2019-05-06T01:25:25.451Z,99.90
2019-05-06T01:27:54.794Z,99.90
2019-05-06T01:30:24.709Z,99.90
2019-05-06T01:32:54.476Z,99.90
2019-05-06T01:35:24.514Z,99.90
2019-05-06T01:38:11.769Z,1.00
2019-05-06T01:40:59.191Z,1.00
2019-05-06T01:43:30.781Z,1.00
2019-05-06T01:46:00.132Z,1.00
2019-05-06T01:48:47.721Z,99.90
2019-05-06T01:51:18.218Z,99.90
2019-05-06T01:53:47.611Z,99.90
2019-05-06T01:56:17.015Z,99.90
2019-05-06T01:58:46.384Z,1.00
2019-05-06T02:01:15.895Z,1.00
2019-05-06T02:03:45.250Z,1.00
2019-05-06T02:06:14.609Z,1.00
2019-05-06T02:08:44.857Z,99.90
2019-05-06T02:11:14.900Z,99.90
2019-05-06T02:13:44.547Z,1.00
2019-05-06T02:16:14.770Z,99.90
2019-05-06T02:18:44.942Z,99.90
2019-05-06T02:21:20.319Z,1.00
2019-05-06T02:23:57.913Z,99.90
2019-05-06T02:26:27.325Z,99.90
2019-05-06T02:28:58.303Z,1.00
2019-05-06T02:31:46.151Z,1.00
2019-05-06T02:34:21.450Z,1.00
2019-05-06T02:37:07.270Z,99.90
2019-05-06T02:39:36.632Z,99.90
2019-05-06T02:42:07.970Z,1.00
2019-05-06T02:44:37.335Z,1.00
2019-05-06T02:47:14.339Z,1.00
2019-05-06T02:49:53.265Z,1.00
2019-05-06T02:52:22.949Z,1.00
2019-05-06T02:54:53.678Z,1.00
2019-05-06T02:57:23.975Z,1.00
2019-05-06T02:59:55.472Z,1.00
2019-05-06T03:02:37.927Z,1.00
2019-05-06T03:04:55.510Z,1.00
2019-05-06T03:07:24.857Z,1.00
2019-05-06T03:09:54.204Z,1.00
2019-05-06T03:12:23.599Z,1.00
2019-05-06T03:14:53.455Z,1.00
2019-05-06T03:17:23.650Z,1.00
2019-05-06T03:19:54.790Z,1.00
2019-05-06T03:22:43.234Z,1.00
2019-05-06T03:25:15.870Z,1.20
2019-05-06T03:27:46.989Z,2.60
2019-05-06T03:30:17.368Z,8.30
2019-05-06T03:33:21.315Z,18.30
2019-05-06T03:35:33.571Z,30.70
2019-05-06T03:37:48.818Z,39.50
2019-05-06T03:40:18.216Z,50.30
2019-05-06T03:42:47.584Z,48.40
2019-05-06T03:45:36.794Z,55.90
2019-05-06T03:48:13.906Z,60.50
2019-05-06T03:50:44.050Z,69.70
2019-05-06T03:53:14.089Z,76.80
2019-05-06T03:55:47.171Z,79.90
2019-05-06T03:58:16.864Z,73.10
2019-05-06T04:00:46.599Z,41.10
2019-05-06T04:03:16.010Z,3.70
2019-05-06T04:05:46.174Z,1.00
2019-05-06T04:08:15.613Z,1.00
2019-05-06T04:10:45.569Z,1.00
2019-05-06T04:13:14.899Z,1.00
2019-05-06T04:16:16.469Z,99.90
2019-05-06T04:18:53.886Z,99.90
2019-05-06T04:21:32.937Z,99.90
2019-05-06T04:24:24.403Z,1.00
2019-05-06T04:27:07.099Z,1.00
2019-05-06T04:29:36.461Z,99.90
2019-05-06T04:32:06.659Z,1.00
2019-05-06T04:34:36.659Z,1.00
2019-05-06T04:37:06.141Z,99.90
2019-05-06T04:39:35.553Z,1.00
2019-05-06T04:42:08.937Z,1.00
2019-05-06T04:44:35.881Z,1.00
2019-05-06T04:47:05.604Z,99.90
2019-05-06T04:49:35.191Z,1.00
2019-05-06T04:52:04.982Z,1.00
2019-05-06T04:54:34.319Z,99.90
2019-05-06T04:57:05.062Z,99.90
2019-05-06T04:59:35.038Z,99.90
2019-05-06T05:02:04.405Z,99.90
2019-05-06T05:04:36.884Z,99.90
2019-05-06T05:07:05.213Z,99.90
2019-05-06T05:09:34.586Z,99.90
2019-05-06T05:12:15.881Z,99.90
2019-05-06T05:14:52.720Z,99.90
2019-05-06T05:17:39.685Z,99.90
2019-05-06T05:20:09.464Z,99.90
2019-05-06T05:22:39.354Z,99.90
2019-05-06T05:25:08.915Z,99.90
2019-05-06T05:27:38.388Z,1.00
2019-05-06T05:30:08.051Z,1.00
2019-05-06T05:32:37.476Z,1.00
2019-05-06T05:35:06.973Z,99.90
2019-05-06T05:37:36.351Z,1.00
2019-05-06T05:40:05.903Z,1.00
2019-05-06T05:42:49.529Z,1.00
2019-05-06T05:45:18.904Z,1.00
2019-05-06T05:47:49.101Z,1.00
2019-05-06T05:50:25.703Z,1.00
2019-05-06T05:52:55.215Z,1.00
2019-05-06T05:55:25.097Z,92.70
2019-05-06T05:57:54.459Z,26.50
2019-05-06T06:00:25.408Z,1.00
2019-05-06T06:02:54.759Z,99.90
2019-05-06T06:05:24.145Z,99.90
2019-05-06T06:07:53.484Z,99.90
2019-05-06T06:10:28.523Z,1.00
2019-05-06T06:12:57.881Z,99.90
2019-05-06T06:15:44.320Z,99.90
2019-05-06T06:18:22.416Z,99.90
2019-05-06T06:21:17.764Z,38.60
2019-05-06T06:23:38.414Z,99.90
2019-05-06T06:26:08.529Z,1.00
2019-05-06T06:28:37.861Z,1.00
2019-05-06T06:31:19.026Z,1.00
2019-05-06T06:33:49.803Z,99.90
2019-05-06T06:36:28.638Z,99.90
2019-05-06T06:39:07.603Z,99.90
2019-05-06T06:41:37.002Z,99.90
2019-05-06T06:44:09.965Z,99.90
2019-05-06T06:46:39.295Z,70.70
2019-05-06T06:49:08.779Z,1.00
2019-05-06T06:51:38.110Z,1.00
2019-05-06T06:54:07.523Z,99.90
2019-05-06T06:57:08.490Z,99.90
2019-05-06T06:59:40.018Z,99.90
2019-05-06T07:02:28.167Z,99.90
2019-05-06T07:05:03.916Z,54.70
2019-05-06T07:07:43.394Z,1.00
2019-05-06T07:10:05.356Z,1.00
2019-05-06T07:12:34.746Z,1.00
2019-05-06T07:15:04.320Z,1.00
2019-05-06T07:17:33.714Z,1.00
2019-05-06T07:20:06.915Z,1.00
2019-05-06T07:22:39.387Z,1.00
2019-05-06T07:25:09.709Z,99.90
2019-05-06T07:27:39.081Z,99.90
2019-05-06T07:30:08.991Z,99.90
2019-05-06T07:32:38.336Z,99.90
2019-05-06T07:35:07.777Z,99.90
2019-05-06T07:37:37.180Z,99.90
2019-05-06T07:40:07.359Z,99.90
2019-05-06T07:42:44.368Z,99.90
2019-05-06T07:45:48.044Z,99.90
2019-05-06T07:48:17.437Z,99.90
2019-05-06T07:50:49.176Z,99.90
2019-05-06T07:53:17.805Z,99.90
2019-05-06T07:55:47.225Z,99.90
2019-05-06T07:58:16.603Z,99.90
2019-05-06T08:00:46.027Z,99.90
2019-05-06T08:03:15.378Z,99.90
2019-05-06T08:05:55.111Z,99.90
2019-05-06T08:08:16.655Z,99.90
2019-05-06T08:10:46.175Z,99.90
2019-05-06T08:13:15.492Z,99.90
2019-05-06T08:15:44.844Z,99.90
2019-05-06T08:18:14.233Z,94.40
2019-05-06T08:20:43.689Z,54.50
2019-05-06T08:23:32.409Z,47.10
2019-05-06T08:26:10.001Z,79.30
2019-05-06T08:28:40.943Z,68.40
2019-05-06T08:31:03.453Z,90.20
2019-05-06T08:33:32.948Z,69.10
2019-05-06T08:36:11.685Z,91.80
2019-05-06T08:38:57.059Z,82.60
2019-05-06T08:41:26.594Z,97.10
2019-05-06T08:43:56.327Z,70.90
2019-05-06T08:46:25.730Z,45.30
2019-05-06T08:48:55.088Z,26.20
2019-05-06T08:51:34.906Z,3.70
2019-05-06T08:54:08.666Z,1.00
2019-05-06T08:56:38.350Z,1.00
2019-05-06T08:59:07.991Z,1.00
2019-05-06T09:01:45.659Z,1.00
2019-05-06T09:04:16.336Z,1.00
2019-05-06T09:06:45.993Z,1.00
2019-05-06T09:09:15.326Z,1.00
2019-05-06T09:11:44.709Z,1.00
2019-05-06T09:14:14.387Z,1.00
2019-05-06T09:16:44.292Z,1.00
2019-05-06T09:19:14.053Z,1.00
2019-05-06T09:21:46.297Z,1.00
2019-05-06T09:24:14.773Z,1.00
2019-05-06T09:26:48.089Z,1.00
2019-05-06T09:29:23.224Z,1.00
2019-05-06T09:31:53.958Z,1.00
2019-05-06T09:34:37.955Z,1.00
2019-05-06T09:37:14.324Z,1.00
2019-05-06T09:39:45.099Z,1.00
2019-05-06T09:42:14.952Z,1.00
2019-05-06T09:44:45.291Z,1.00
2019-05-06T09:47:23.928Z,1.00
2019-05-06T09:49:53.357Z,1.00
2019-05-06T09:52:23.289Z,1.00
2019-05-06T09:55:08.991Z,1.00
2019-05-06T09:57:55.997Z,1.00
2019-05-06T10:00:25.509Z,1.00
2019-05-06T10:02:54.888Z,1.00
2019-05-06T10:05:24.242Z,1.00
2019-05-06T10:07:53.709Z,1.00
2019-05-06T10:10:23.062Z,1.00
2019-05-06T10:12:53.101Z,1.00
2019-05-06T10:15:23.013Z,1.00
2019-05-06T10:18:07.929Z,1.00
2019-05-06T10:20:43.081Z,1.00
2019-05-06T10:23:13.014Z,1.00
2019-05-06T10:25:43.803Z,1.00
2019-05-06T10:28:25.805Z,1.00
2019-05-06T10:30:55.153Z,1.00
2019-05-06T10:33:26.064Z,1.00
2019-05-06T10:35:57.339Z,1.00
2019-05-06T10:38:48.446Z,1.00
2019-05-06T10:41:22.376Z,1.00
2019-05-06T10:44:23.291Z,1.00
2019-05-06T10:46:52.898Z,1.00
2019-05-06T10:49:22.856Z,1.00
2019-05-06T10:52:04.817Z,1.00
2019-05-06T10:54:34.172Z,1.00
2019-05-06T10:57:32.828Z,1.00
2019-05-06T11:00:02.493Z,1.00
2019-05-06T11:02:47.412Z,1.00
2019-05-06T11:05:16.760Z,1.00
2019-05-06T11:07:46.098Z,1.00
2019-05-06T11:10:24.353Z,1.00
2019-05-06T11:12:46.755Z,1.00
2019-05-06T11:15:16.104Z,1.00
2019-05-06T11:17:45.519Z,1.00
2019-05-06T11:20:14.861Z,1.00
2019-05-06T11:22:44.268Z,1.00
2019-05-06T11:25:14.592Z,1.00
2019-05-06T11:27:45.209Z,1.00
2019-05-06T11:30:24.846Z,1.00
2019-05-06T11:33:04.754Z,1.00
2019-05-06T11:35:52.742Z,1.00
2019-05-06T11:38:22.754Z,1.00
2019-05-06T11:40:52.978Z,1.00
2019-05-06T11:43:22.897Z,1.00
2019-05-06T11:45:52.377Z,1.00
2019-05-06T11:48:22.312Z,1.00
2019-05-06T11:50:53.708Z,1.00
2019-05-06T11:53:23.303Z,1.00
2019-05-06T11:55:54.923Z,1.00
2019-05-06T11:58:43.357Z,1.00
2019-05-06T12:01:18.346Z,1.00
2019-05-06T12:03:47.714Z,1.00
2019-05-06T12:06:17.085Z,1.00
2019-05-06T12:08:46.464Z,1.00
2019-05-06T12:11:15.832Z,1.00
2019-05-06T12:13:45.293Z,1.00
2019-05-06T12:16:14.647Z,1.00
2019-05-06T12:18:44.037Z,1.00
2019-05-06T12:21:18.874Z,1.00
2019-05-06T12:23:45.114Z,1.00
2019-05-06T12:26:14.648Z,1.00
2019-05-06T12:28:43.937Z,1.00
2019-05-06T12:31:13.355Z,1.00
2019-05-06T12:33:53.057Z,1.00
2019-05-06T12:36:22.366Z,1.00
2019-05-06T12:39:09.943Z,1.00
2019-05-06T12:42:13.530Z,1.00
2019-05-06T12:44:52.952Z,1.00
2019-05-06T12:47:32.937Z,1.00
2019-05-06T12:50:02.912Z,1.00
2019-05-06T12:52:32.417Z,1.00
2019-05-06T12:55:17.000Z,1.00
2019-05-06T12:57:34.525Z,1.00
2019-05-06T13:00:04.718Z,1.00
2019-05-06T13:02:34.105Z,1.00
2019-05-06T13:05:04.170Z,1.00
2019-05-06T13:07:41.947Z,1.00
2019-05-06T13:10:12.955Z,1.00
2019-05-06T13:12:43.745Z,1.00
2019-05-06T13:15:13.588Z,1.00
2019-05-06T13:17:43.014Z,1.00
2019-05-06T13:20:14.642Z,1.00
2019-05-06T13:22:56.018Z,1.00
2019-05-06T13:25:29.348Z,1.00
2019-05-06T13:27:58.670Z,1.00
2019-05-06T13:30:28.005Z,1.00
2019-05-06T13:33:04.059Z,1.00
2019-05-06T13:35:33.700Z,1.00
2019-05-06T13:38:03.064Z,1.00
2019-05-06T13:40:35.016Z,1.00
2019-05-06T13:43:23.497Z,1.00
2019-05-06T13:45:53.829Z,1.00
2019-05-06T13:48:32.522Z,1.00
2019-05-06T13:51:05.535Z,1.00
2019-05-06T13:53:39.537Z,1.00
2019-05-06T13:56:06.398Z,1.00
2019-05-06T13:58:35.773Z,1.00
2019-05-06T14:01:08.032Z,1.00
2019-05-06T14:03:38.018Z,1.00
2019-05-06T14:06:07.366Z,1.00
2019-05-06T14:08:36.753Z,1.00
2019-05-06T14:11:06.103Z,1.00
2019-05-06T14:13:35.472Z,1.00
2019-05-06T14:16:04.880Z,1.00
2019-05-06T14:18:37.529Z,1.00
2019-05-06T14:21:05.304Z,1.00
2019-05-06T14:23:34.656Z,1.00
2019-05-06T14:26:22.850Z,1.00
2019-05-06T14:28:57.451Z,1.00
2019-05-06T14:31:29.338Z,1.00
2019-05-06T14:33:59.410Z,1.00
2019-05-06T14:36:29.626Z,1.00
2019-05-06T14:38:58.977Z,1.00
2019-05-06T14:41:29.069Z,1.00
2019-05-06T14:43:58.411Z,1.00
2019-05-06T14:46:33.151Z,1.00
2019-05-06T14:49:04.284Z,1.00
2019-05-06T14:51:33.736Z,1.00
2019-05-06T14:54:03.153Z,1.00
2019-05-06T14:56:39.237Z,1.00
2019-05-06T14:59:08.904Z,1.00
2019-05-06T15:01:39.586Z,1.00
2019-05-06T15:04:08.963Z,1.00
2019-05-06T15:06:38.409Z,1.00
2019-05-06T15:09:13.333Z,1.00
2019-05-06T15:11:43.476Z,1.00
2019-05-06T15:14:13.257Z,1.00
2019-05-06T15:16:42.676Z,1.00
2019-05-06T15:19:12.854Z,1.00
2019-05-06T15:21:42.886Z,1.00
2019-05-06T15:24:13.836Z,1.00
2019-05-06T15:26:43.421Z,1.00
2019-05-06T15:29:13.352Z,13.30
2019-05-06T15:32:02.617Z,99.90
2019-05-06T15:34:39.628Z,48.90
2019-05-06T15:37:16.008Z,99.90
2019-05-06T15:39:45.561Z,99.90
2019-05-06T15:42:15.053Z,99.90
2019-05-06T15:44:44.610Z,99.90
2019-05-06T15:47:14.111Z,53.70
2019-05-06T15:49:43.942Z,73.10
2019-05-06T15:52:13.713Z,83.40
2019-05-06T15:54:43.808Z,87.30
2019-05-06T15:57:13.102Z,99.90
2019-05-06T15:59:44.483Z,99.90
2019-05-06T16:02:13.965Z,99.90
2019-05-06T16:04:43.331Z,99.90
2019-05-06T16:07:13.366Z,99.90
2019-05-06T16:09:43.203Z,99.90
2019-05-06T16:12:12.968Z,99.90
2019-05-06T16:14:42.676Z,99.90
2019-05-06T16:17:12.357Z,99.90
2019-05-06T16:19:42.992Z,99.90
2019-05-06T16:22:12.364Z,99.90
2019-05-06T16:24:46.661Z,99.90
2019-05-06T16:27:16.089Z,99.90
2019-05-06T16:29:45.424Z,99.90
2019-05-06T16:32:15.242Z,1.00
2019-05-06T16:34:45.520Z,1.00
2019-05-06T16:37:14.852Z,99.90
2019-05-06T16:39:44.232Z,99.90
2019-05-06T16:42:13.628Z,99.90
2019-05-06T16:44:45.207Z,99.90
2019-05-06T16:47:33.050Z,1.00
2019-05-06T16:50:02.377Z,1.00
2019-05-06T16:52:33.357Z,1.00
2019-05-06T16:55:03.251Z,1.00
2019-05-06T16:57:33.355Z,99.90
2019-05-06T17:00:03.059Z,99.90
2019-05-06T17:02:55.919Z,99.90
2019-05-06T17:05:33.653Z,51.30
2019-05-06T17:08:03.074Z,1.00
2019-05-06T17:10:32.774Z,1.00
2019-05-06T17:13:02.937Z,1.00
2019-05-06T17:15:32.858Z,1.00
2019-05-06T17:18:03.089Z,1.00
2019-05-06T17:20:32.934Z,1.00
2019-05-06T17:23:03.048Z,1.00
2019-05-06T17:25:33.678Z,1.00
2019-05-06T17:28:17.548Z,1.00
2019-05-06T17:31:05.678Z,1.00
2019-05-06T17:33:37.009Z,1.00
2019-05-06T17:36:07.373Z,1.00
2019-05-06T17:38:43.832Z,1.00
2019-05-06T17:41:13.199Z,1.00
2019-05-06T17:43:44.144Z,1.00
2019-05-06T17:46:15.184Z,1.00
2019-05-06T17:48:52.850Z,1.00
2019-05-06T17:51:30.434Z,95.50
2019-05-06T17:54:00.391Z,99.90
2019-05-06T17:56:29.912Z,99.90
2019-05-06T17:58:59.273Z,1.00
2019-05-06T18:01:38.088Z,74.60
2019-05-06T18:04:07.465Z,99.90
2019-05-06T18:06:36.832Z,1.00
2019-05-06T18:09:08.425Z,1.00
2019-05-06T18:11:37.861Z,99.90
2019-05-06T18:14:07.229Z,1.00
2019-05-06T18:16:36.614Z,1.00
2019-05-06T18:19:05.985Z,99.90
2019-05-06T18:21:35.365Z,1.00
2019-05-06T18:24:04.966Z,99.90
2019-05-06T18:26:34.305Z,99.90
2019-05-06T18:29:03.733Z,99.90
2019-05-06T18:31:33.638Z,99.90
2019-05-06T18:34:06.273Z,99.90
2019-05-06T18:36:34.160Z,99.90
2019-05-06T18:39:05.021Z,94.60
2019-05-06T18:41:34.518Z,99.90
2019-05-06T18:44:03.886Z,1.00
2019-05-06T18:46:33.954Z,99.90
2019-05-06T18:49:03.265Z,1.00
2019-05-06T18:51:32.613Z,1.00
2019-05-06T18:54:03.044Z,99.90
2019-05-06T18:56:32.801Z,1.00
2019-05-06T18:59:02.884Z,99.90
2019-05-06T19:01:33.287Z,99.90
2019-05-06T19:04:09.681Z,99.90
2019-05-06T19:06:39.053Z,1.00
2019-05-06T19:09:22.810Z,1.00
2019-05-06T19:11:54.501Z,43.70
2019-05-06T19:14:23.368Z,99.90
2019-05-06T19:16:55.144Z,1.00
2019-05-06T19:19:23.709Z,1.00
2019-05-06T19:21:53.077Z,1.00
2019-05-06T19:24:22.755Z,99.90
2019-05-06T19:26:52.730Z,99.90
2019-05-06T19:29:23.255Z,1.00
2019-05-06T19:31:52.665Z,1.00
2019-05-06T19:34:23.578Z,1.00
2019-05-06T19:36:53.198Z,1.00
2019-05-06T19:39:23.134Z,33.70
2019-05-06T19:41:52.600Z,99.90
2019-05-06T19:44:22.179Z,99.90
2019-05-06T19:46:53.286Z,99.90
2019-05-06T19:49:23.901Z,99.90
2019-05-06T19:51:53.316Z,99.90
2019-05-06T19:54:22.745Z,1.00
2019-05-06T19:56:52.619Z,1.00
2019-05-06T19:59:22.261Z,1.00
2019-05-06T20:01:52.497Z,1.00
2019-05-06T20:04:22.816Z,1.00
2019-05-06T20:07:06.846Z,1.00
2019-05-06T20:09:55.149Z,1.00
2019-05-06T20:12:37.354Z,1.00
2019-05-06T20:15:25.233Z,1.00
2019-05-06T20:17:54.684Z,1.00
2019-05-06T20:20:24.336Z,1.00
2019-05-06T20:22:53.843Z,1.00
2019-05-06T20:25:23.536Z,1.00
2019-05-06T20:27:53.088Z,1.00
2019-05-06T20:30:22.826Z,1.00
2019-05-06T20:32:52.473Z,1.00
2019-05-06T20:35:22.495Z,1.00
2019-05-06T20:37:53.378Z,1.00
2019-05-06T20:40:23.274Z,1.00
2019-05-06T20:42:52.662Z,1.00
2019-05-06T20:45:22.360Z,1.00
2019-05-06T20:47:52.530Z,1.00
2019-05-06T20:50:22.716Z,1.00
2019-05-06T20:52:52.219Z,1.00
2019-05-06T20:55:22.934Z,1.00
2019-05-06T20:57:53.050Z,1.00
2019-05-06T21:00:22.609Z,1.00
2019-05-06T21:02:53.428Z,1.00
2019-05-06T21:05:24.022Z,1.00
2019-05-06T21:07:53.355Z,1.00
2019-05-06T21:10:22.755Z,1.00
2019-05-06T21:12:53.243Z,1.00
2019-05-06T21:15:23.111Z,1.00
2019-05-06T21:17:52.564Z,1.00
2019-05-06T21:20:22.011Z,1.00
2019-05-06T21:22:52.770Z,1.00
2019-05-06T21:25:22.755Z,1.00
2019-05-06T21:27:53.217Z,1.00
2019-05-06T21:30:22.706Z,1.00
2019-05-06T21:32:52.196Z,1.00
2019-05-06T21:35:22.228Z,1.00
2019-05-06T21:37:52.974Z,1.00
2019-05-06T21:40:22.403Z,1.00
2019-05-06T21:42:51.738Z,1.00
2019-05-06T21:45:22.166Z,1.00
2019-05-06T21:47:53.047Z,1.00
2019-05-06T21:50:22.878Z,1.00
2019-05-06T21:52:52.247Z,1.00
2019-05-06T21:55:22.728Z,1.00
2019-05-06T21:57:52.938Z,1.00
2019-05-06T22:00:27.314Z,1.00
2019-05-06T22:02:57.148Z,1.00
2019-05-06T22:05:26.504Z,1.00
2019-05-06T22:07:55.843Z,1.00
2019-05-06T22:10:25.303Z,1.00
2019-05-06T22:12:54.712Z,1.00
2019-05-06T22:15:24.100Z,1.00
2019-05-06T22:17:54.507Z,1.00
2019-05-06T22:20:23.928Z,1.00
2019-05-06T22:22:53.315Z,1.00
2019-05-06T22:25:22.652Z,1.00
2019-05-06T22:27:52.102Z,1.00
2019-05-06T22:30:23.723Z,1.00
2019-05-06T22:32:52.799Z,1.00
2019-05-06T22:35:23.060Z,1.00
2019-05-06T22:37:53.093Z,1.00
2019-05-06T22:40:23.803Z,1.00
2019-05-06T22:42:53.389Z,1.00
2019-05-06T22:45:22.941Z,1.00
2019-05-06T22:47:54.016Z,1.00
2019-05-06T22:50:25.127Z,1.00
2019-05-06T22:52:54.618Z,1.00
2019-05-06T22:55:24.119Z,1.00
2019-05-06T22:57:53.698Z,1.00
2019-05-06T23:00:25.753Z,1.00
2019-05-06T23:03:02.135Z,1.00
2019-05-06T23:05:32.555Z,1.00
2019-05-06T23:08:02.864Z,1.00
2019-05-06T23:10:33.654Z,1.00
2019-05-06T23:13:03.230Z,1.00
2019-05-06T23:15:34.179Z,1.00
2019-05-06T23:18:03.698Z,1.00
2019-05-06T23:20:33.033Z,1.00
2019-05-06T23:23:04.526Z,1.00
2019-05-06T23:25:33.402Z,1.00
2019-05-06T23:28:02.911Z,1.00
2019-05-06T23:30:33.447Z,1.00
2019-05-06T23:33:02.903Z,1.00
2019-05-06T23:35:32.290Z,1.00
2019-05-06T23:38:37.161Z,1.00
2019-05-06T23:41:42.362Z,1.00
2019-05-06T23:44:46.955Z,1.00
2019-05-06T23:47:53.145Z,1.00
2019-05-06T23:50:58.213Z,1.00
2019-05-06T23:54:03.372Z,10.30
2019-05-06T23:56:43.408Z,39.00
2019-05-06T23:59:13.564Z,30.00
